sensor_id;sensor_type;location;lat;lon;timestamp;temperature;humidity
6333;DHT22;3199;49.102;8.856;2023-04-07T00:00:25;7.20;99.90
6333;DHT22;3199;49.102;8.856;2023-04-07T00:02:51;7.20;99.90
6333;DHT22;3199;49.102;8.856;2023-04-07T00:05:16;7.20;99.90
6333;DHT22;3199;49.102;8.856;2023-04-07T00:07:42;7.30;99.90
6333;DHT22;3199;49.102;8.856;2023-04-07T00:10:08;7.30;99.90
6333;DHT22;3199;49.102;8.856;2023-04-07T00:12:33;7.30;99.90
6333;DHT22;3199;49.102;8.856;2023-04-07T00:15:00;7.30;99.90
6333;DHT22;3199;49.102;8.856;2023-04-07T00:17:25;7.30;99.90
6333;DHT22;3199;49.102;8.856;2023-04-07T00:19:51;7.20;99.90
6333;DHT22;3199;49.102;8.856;2023-04-07T00:22:16;7.30;99.90
6333;DHT22;3199;49.102;8.856;2023-04-07T00:24:42;7.30;99.90
6333;DHT22;3199;49.102;8.856;2023-04-07T00:27:08;7.30;99.90
6333;DHT22;3199;49.102;8.856;2023-04-07T00:29:33;7.30;99.90
6333;DHT22;3199;49.102;8.856;2023-04-07T00:31:59;7.30;99.90
6333;DHT22;3199;49.102;8.856;2023-04-07T00:34:24;7.30;99.90
6333;DHT22;3199;49.102;8.856;2023-04-07T00:36:50;7.30;99.90
6333;DHT22;3199;49.102;8.856;2023-04-07T00:39:19;7.30;99.90
6333;DHT22;3199;49.102;8.856;2023-04-07T00:41:45;7.30;99.90
6333;DHT22;3199;49.102;8.856;2023-04-07T00:44:11;7.30;99.90
6333;DHT22;3199;49.102;8.856;2023-04-07T00:46:37;7.30;99.90
6333;DHT22;3199;49.102;8.856;2023-04-07T00:49:02;7.30;99.90
6333;DHT22;3199;49.102;8.856;2023-04-07T00:51:28;7.30;99.90
6333;DHT22;3199;49.102;8.856;2023-04-07T00:53:54;7.30;99.90
6333;DHT22;3199;49.102;8.856;2023-04-07T00:56:20;7.30;99.90
6333;DHT22;3199;49.102;8.856;2023-04-07T00:58:45;7.30;99.90
6333;DHT22;3199;49.102;8.856;2023-04-07T01:01:39;7.30;99.90
6333;DHT22;3199;49.102;8.856;2023-04-07T01:04:31;7.30;99.90
6333;DHT22;3199;49.102;8.856;2023-04-07T01:07:05;7.30;99.90
6333;DHT22;3199;49.102;8.856;2023-04-07T01:09:47;7.40;99.90
6333;DHT22;3199;49.102;8.856;2023-04-07T01:12:35;7.40;99.90
6333;DHT22;3199;49.102;8.856;2023-04-07T01:15:08;7.40;99.90
6333;DHT22;3199;49.102;8.856;2023-04-07T01:17:34;7.50;99.90
6333;DHT22;3199;49.102;8.856;2023-04-07T01:20:03;7.50;99.90
6333;DHT22;3199;49.102;8.856;2023-04-07T01:22:35;7.50;99.90
6333;DHT22;3199;49.102;8.856;2023-04-07T01:30:40;7.40;99.90
6333;DHT22;3199;49.102;8.856;2023-04-07T01:33:09;7.50;99.90
6333;DHT22;3199;49.102;8.856;2023-04-07T01:35:36;7.50;99.90
6333;DHT22;3199;49.102;8.856;2023-04-07T01:38:03;7.40;99.90
6333;DHT22;3199;49.102;8.856;2023-04-07T01:40:29;7.40;99.90
6333;DHT22;3199;49.102;8.856;2023-04-07T01:42:57;7.40;99.90
6333;DHT22;3199;49.102;8.856;2023-04-07T01:45:25;7.50;99.90
6333;DHT22;3199;49.102;8.856;2023-04-07T01:47:52;7.50;99.90
6333;DHT22;3199;49.102;8.856;2023-04-07T01:50:19;7.50;99.90
6333;DHT22;3199;49.102;8.856;2023-04-07T01:52:46;7.60;99.90
6333;DHT22;3199;49.102;8.856;2023-04-07T01:55:11;7.60;99.90
6333;DHT22;3199;49.102;8.856;2023-04-07T01:57:37;7.60;99.90
6333;DHT22;3199;49.102;8.856;2023-04-07T02:00:03;7.70;99.90
6333;DHT22;3199;49.102;8.856;2023-04-07T02:02:29;7.70;99.90
6333;DHT22;3199;49.102;8.856;2023-04-07T02:04:59;7.70;99.90
6333;DHT22;3199;49.102;8.856;2023-04-07T02:07:51;7.70;99.90
6333;DHT22;3199;49.102;8.856;2023-04-07T02:10:21;7.70;99.90
6333;DHT22;3199;49.102;8.856;2023-04-07T02:12:48;7.80;99.90
6333;DHT22;3199;49.102;8.856;2023-04-07T02:15:14;7.80;99.90
6333;DHT22;3199;49.102;8.856;2023-04-07T02:17:42;7.80;99.90
6333;DHT22;3199;49.102;8.856;2023-04-07T02:20:10;7.80;99.90
6333;DHT22;3199;49.102;8.856;2023-04-07T02:22:39;7.80;99.90
6333;DHT22;3199;49.102;8.856;2023-04-07T02:25:24;7.80;99.90
6333;DHT22;3199;49.102;8.856;2023-04-07T02:27:51;7.80;99.90
6333;DHT22;3199;49.102;8.856;2023-04-07T02:30:17;7.80;99.90
6333;DHT22;3199;49.102;8.856;2023-04-07T02:32:43;7.80;99.90
6333;DHT22;3199;49.102;8.856;2023-04-07T02:35:08;7.80;99.90
6333;DHT22;3199;49.102;8.856;2023-04-07T02:37:34;7.80;99.90
6333;DHT22;3199;49.102;8.856;2023-04-07T02:39:59;7.80;99.90
6333;DHT22;3199;49.102;8.856;2023-04-07T02:42:25;7.80;99.90
6333;DHT22;3199;49.102;8.856;2023-04-07T02:44:51;7.80;99.90
6333;DHT22;3199;49.102;8.856;2023-04-07T02:47:16;7.80;99.90
6333;DHT22;3199;49.102;8.856;2023-04-07T02:49:42;7.80;99.90
6333;DHT22;3199;49.102;8.856;2023-04-07T02:52:07;7.80;99.90
6333;DHT22;3199;49.102;8.856;2023-04-07T02:54:33;7.80;99.90
6333;DHT22;3199;49.102;8.856;2023-04-07T02:56:58;7.80;99.90
6333;DHT22;3199;49.102;8.856;2023-04-07T02:59:24;7.80;99.90
6333;DHT22;3199;49.102;8.856;2023-04-07T03:01:49;7.80;99.90
6333;DHT22;3199;49.102;8.856;2023-04-07T03:04:15;7.80;99.90
6333;DHT22;3199;49.102;8.856;2023-04-07T03:06:40;7.80;99.90
6333;DHT22;3199;49.102;8.856;2023-04-07T03:09:06;7.80;99.90
6333;DHT22;3199;49.102;8.856;2023-04-07T03:11:31;7.80;99.90
6333;DHT22;3199;49.102;8.856;2023-04-07T03:13:57;7.80;99.90
6333;DHT22;3199;49.102;8.856;2023-04-07T03:16:22;7.80;99.90
6333;DHT22;3199;49.102;8.856;2023-04-07T03:18:48;7.80;99.90
6333;DHT22;3199;49.102;8.856;2023-04-07T03:21:13;7.70;99.90
6333;DHT22;3199;49.102;8.856;2023-04-07T03:23:39;7.70;99.90
6333;DHT22;3199;49.102;8.856;2023-04-07T03:26:05;7.70;99.90
6333;DHT22;3199;49.102;8.856;2023-04-07T03:28:31;7.70;99.90
6333;DHT22;3199;49.102;8.856;2023-04-07T03:30:56;7.70;99.90
6333;DHT22;3199;49.102;8.856;2023-04-07T03:33:22;7.70;99.90
6333;DHT22;3199;49.102;8.856;2023-04-07T03:35:47;7.70;99.90
6333;DHT22;3199;49.102;8.856;2023-04-07T03:38:13;7.70;99.90
6333;DHT22;3199;49.102;8.856;2023-04-07T03:40:38;7.70;99.90
6333;DHT22;3199;49.102;8.856;2023-04-07T03:43:04;7.70;99.90
6333;DHT22;3199;49.102;8.856;2023-04-07T03:45:29;7.70;99.90
6333;DHT22;3199;49.102;8.856;2023-04-07T03:47:55;7.70;99.90
6333;DHT22;3199;49.102;8.856;2023-04-07T03:50:20;7.70;99.90
6333;DHT22;3199;49.102;8.856;2023-04-07T03:52:46;7.80;99.90
6333;DHT22;3199;49.102;8.856;2023-04-07T03:55:11;7.70;99.90
6333;DHT22;3199;49.102;8.856;2023-04-07T03:57:37;7.70;99.90
6333;DHT22;3199;49.102;8.856;2023-04-07T04:00:04;7.70;99.90
6333;DHT22;3199;49.102;8.856;2023-04-07T04:02:29;7.70;99.90
6333;DHT22;3199;49.102;8.856;2023-04-07T04:04:55;7.70;99.90
6333;DHT22;3199;49.102;8.856;2023-04-07T04:07:20;7.70;99.90
6333;DHT22;3199;49.102;8.856;2023-04-07T04:09:46;7.80;99.90
6333;DHT22;3199;49.102;8.856;2023-04-07T04:12:12;7.80;99.90
6333;DHT22;3199;49.102;8.856;2023-04-07T04:14:37;7.80;99.90
6333;DHT22;3199;49.102;8.856;2023-04-07T04:17:03;7.80;99.90
6333;DHT22;3199;49.102;8.856;2023-04-07T04:19:28;7.80;99.90
6333;DHT22;3199;49.102;8.856;2023-04-07T04:21:54;7.80;99.90
6333;DHT22;3199;49.102;8.856;2023-04-07T04:24:19;7.80;99.90
6333;DHT22;3199;49.102;8.856;2023-04-07T04:26:45;7.80;99.90
6333;DHT22;3199;49.102;8.856;2023-04-07T04:29:11;7.80;99.90
6333;DHT22;3199;49.102;8.856;2023-04-07T04:31:36;7.80;99.90
6333;DHT22;3199;49.102;8.856;2023-04-07T04:34:02;7.80;99.90
6333;DHT22;3199;49.102;8.856;2023-04-07T04:36:27;7.80;99.90
6333;DHT22;3199;49.102;8.856;2023-04-07T04:38:53;7.80;99.90
6333;DHT22;3199;49.102;8.856;2023-04-07T04:41:18;7.80;99.90
6333;DHT22;3199;49.102;8.856;2023-04-07T04:43:44;7.80;99.90
6333;DHT22;3199;49.102;8.856;2023-04-07T04:46:10;7.80;99.90
6333;DHT22;3199;49.102;8.856;2023-04-07T04:48:35;7.80;99.90
6333;DHT22;3199;49.102;8.856;2023-04-07T04:51:01;7.80;99.90
6333;DHT22;3199;49.102;8.856;2023-04-07T04:53:26;7.80;99.90
6333;DHT22;3199;49.102;8.856;2023-04-07T04:55:53;7.80;99.90
6333;DHT22;3199;49.102;8.856;2023-04-07T04:58:19;7.80;99.90
6333;DHT22;3199;49.102;8.856;2023-04-07T05:00:45;7.70;99.90
6333;DHT22;3199;49.102;8.856;2023-04-07T05:03:10;7.80;99.90
6333;DHT22;3199;49.102;8.856;2023-04-07T05:05:36;7.70;99.90
6333;DHT22;3199;49.102;8.856;2023-04-07T05:08:02;7.70;99.90
6333;DHT22;3199;49.102;8.856;2023-04-07T05:10:27;7.70;99.90
6333;DHT22;3199;49.102;8.856;2023-04-07T05:12:53;7.70;99.90
6333;DHT22;3199;49.102;8.856;2023-04-07T05:15:18;7.60;99.90
6333;DHT22;3199;49.102;8.856;2023-04-07T05:17:44;7.60;99.90
6333;DHT22;3199;49.102;8.856;2023-04-07T05:20:14;7.50;99.90
6333;DHT22;3199;49.102;8.856;2023-04-07T05:22:40;7.50;99.90
6333;DHT22;3199;49.102;8.856;2023-04-07T05:25:06;7.50;99.90
6333;DHT22;3199;49.102;8.856;2023-04-07T05:27:32;7.50;99.90
6333;DHT22;3199;49.102;8.856;2023-04-07T05:29:57;7.50;99.90
6333;DHT22;3199;49.102;8.856;2023-04-07T05:32:23;7.50;99.90
6333;DHT22;3199;49.102;8.856;2023-04-07T05:34:48;7.50;99.90
6333;DHT22;3199;49.102;8.856;2023-04-07T05:37:14;7.50;99.90
6333;DHT22;3199;49.102;8.856;2023-04-07T05:39:40;7.50;99.90
6333;DHT22;3199;49.102;8.856;2023-04-07T05:42:05;7.60;99.90
6333;DHT22;3199;49.102;8.856;2023-04-07T05:44:32;7.60;99.90
6333;DHT22;3199;49.102;8.856;2023-04-07T05:46:57;7.70;99.90
6333;DHT22;3199;49.102;8.856;2023-04-07T05:49:23;7.80;99.90
6333;DHT22;3199;49.102;8.856;2023-04-07T05:51:48;7.80;99.90
6333;DHT22;3199;49.102;8.856;2023-04-07T05:54:14;7.90;99.90
6333;DHT22;3199;49.102;8.856;2023-04-07T05:56:39;8.00;99.90
6333;DHT22;3199;49.102;8.856;2023-04-07T05:59:05;8.10;99.90
6333;DHT22;3199;49.102;8.856;2023-04-07T06:01:30;8.10;99.90
6333;DHT22;3199;49.102;8.856;2023-04-07T06:03:56;8.10;99.90
6333;DHT22;3199;49.102;8.856;2023-04-07T06:06:23;8.20;99.90
6333;DHT22;3199;49.102;8.856;2023-04-07T06:08:48;8.20;99.90
6333;DHT22;3199;49.102;8.856;2023-04-07T06:11:14;8.20;99.90
6333;DHT22;3199;49.102;8.856;2023-04-07T06:13:39;8.20;99.90
6333;DHT22;3199;49.102;8.856;2023-04-07T06:16:05;8.30;99.90
6333;DHT22;3199;49.102;8.856;2023-04-07T06:18:31;8.40;99.90
6333;DHT22;3199;49.102;8.856;2023-04-07T06:20:56;8.40;99.90
6333;DHT22;3199;49.102;8.856;2023-04-07T06:23:22;8.50;99.90
6333;DHT22;3199;49.102;8.856;2023-04-07T06:25:47;8.60;99.90
6333;DHT22;3199;49.102;8.856;2023-04-07T06:28:17;8.70;99.90
6333;DHT22;3199;49.102;8.856;2023-04-07T06:30:43;8.80;99.90
6333;DHT22;3199;49.102;8.856;2023-04-07T06:33:08;8.80;99.90
6333;DHT22;3199;49.102;8.856;2023-04-07T06:35:34;8.90;99.90
6333;DHT22;3199;49.102;8.856;2023-04-07T06:38:00;9.00;99.90
6333;DHT22;3199;49.102;8.856;2023-04-07T06:40:26;9.00;99.90
6333;DHT22;3199;49.102;8.856;2023-04-07T06:42:52;9.20;99.90
6333;DHT22;3199;49.102;8.856;2023-04-07T06:45:19;9.30;99.90
6333;DHT22;3199;49.102;8.856;2023-04-07T06:47:44;9.80;99.90
6333;DHT22;3199;49.102;8.856;2023-04-07T06:50:10;10.40;99.90
6333;DHT22;3199;49.102;8.856;2023-04-07T06:52:36;11.20;99.90
6333;DHT22;3199;49.102;8.856;2023-04-07T06:55:01;12.10;99.90
6333;DHT22;3199;49.102;8.856;2023-04-07T06:57:27;12.70;99.90
6333;DHT22;3199;49.102;8.856;2023-04-07T06:59:53;13.40;99.90
6333;DHT22;3199;49.102;8.856;2023-04-07T07:02:18;14.00;99.90
6333;DHT22;3199;49.102;8.856;2023-04-07T07:04:44;14.60;99.80
6333;DHT22;3199;49.102;8.856;2023-04-07T07:07:09;15.10;99.00
6333;DHT22;3199;49.102;8.856;2023-04-07T07:09:35;15.70;97.70
6333;DHT22;3199;49.102;8.856;2023-04-07T07:12:00;16.20;95.40
6333;DHT22;3199;49.102;8.856;2023-04-07T07:14:26;16.40;93.00
6333;DHT22;3199;49.102;8.856;2023-04-07T07:16:52;16.20;91.30
6333;DHT22;3199;49.102;8.856;2023-04-07T07:19:17;16.20;91.30
6333;DHT22;3199;49.102;8.856;2023-04-07T07:21:43;16.40;90.50
6333;DHT22;3199;49.102;8.856;2023-04-07T07:24:08;16.50;90.50
6333;DHT22;3199;49.102;8.856;2023-04-07T07:26:34;16.90;89.70
6333;DHT22;3199;49.102;8.856;2023-04-07T07:29:00;17.00;88.30
6333;DHT22;3199;49.102;8.856;2023-04-07T07:31:25;17.30;86.00
6333;DHT22;3199;49.102;8.856;2023-04-07T07:33:51;17.50;86.00
6333;DHT22;3199;49.102;8.856;2023-04-07T07:36:17;17.80;84.20
6333;DHT22;3199;49.102;8.856;2023-04-07T07:38:42;18.30;83.40
6333;DHT22;3199;49.102;8.856;2023-04-07T07:41:08;18.90;80.70
6333;DHT22;3199;49.102;8.856;2023-04-07T07:43:34;19.40;77.90
6333;DHT22;3199;49.102;8.856;2023-04-07T07:45:59;19.80;75.50
6333;DHT22;3199;49.102;8.856;2023-04-07T07:48:25;20.00;74.60
6333;DHT22;3199;49.102;8.856;2023-04-07T07:50:51;20.10;72.70
6333;DHT22;3199;49.102;8.856;2023-04-07T07:53:17;20.40;72.10
6333;DHT22;3199;49.102;8.856;2023-04-07T07:55:42;20.40;70.20
6333;DHT22;3199;49.102;8.856;2023-04-07T07:58:08;20.40;70.40
6333;DHT22;3199;49.102;8.856;2023-04-07T08:00:33;20.30;68.70
6333;DHT22;3199;49.102;8.856;2023-04-07T08:02:59;20.40;68.50
6333;DHT22;3199;49.102;8.856;2023-04-07T08:05:25;20.70;68.30
6333;DHT22;3199;49.102;8.856;2023-04-07T08:07:51;20.90;67.00
6333;DHT22;3199;49.102;8.856;2023-04-07T08:10:17;20.80;66.40
6333;DHT22;3199;49.102;8.856;2023-04-07T08:12:44;20.50;67.20
6333;DHT22;3199;49.102;8.856;2023-04-07T08:15:10;20.80;67.00
6333;DHT22;3199;49.102;8.856;2023-04-07T08:17:36;21.10;67.00
6333;DHT22;3199;49.102;8.856;2023-04-07T08:20:04;21.10;65.40
6333;DHT22;3199;49.102;8.856;2023-04-07T08:22:29;21.20;65.60
6333;DHT22;3199;49.102;8.856;2023-04-07T08:24:55;21.30;65.20
6333;DHT22;3199;49.102;8.856;2023-04-07T08:27:21;21.40;64.90
6333;DHT22;3199;49.102;8.856;2023-04-07T08:30:01;21.50;64.00
6333;DHT22;3199;49.102;8.856;2023-04-07T08:32:39;21.80;63.70
6333;DHT22;3199;49.102;8.856;2023-04-07T08:35:05;21.80;61.60
6333;DHT22;3199;49.102;8.856;2023-04-07T08:37:32;21.90;62.20
6333;DHT22;3199;49.102;8.856;2023-04-07T08:39:58;22.00;60.60
6333;DHT22;3199;49.102;8.856;2023-04-07T08:42:27;22.00;59.60
6333;DHT22;3199;49.102;8.856;2023-04-07T08:44:56;21.90;59.90
6333;DHT22;3199;49.102;8.856;2023-04-07T08:47:24;21.70;60.90
6333;DHT22;3199;49.102;8.856;2023-04-07T08:49:51;21.10;60.40
6333;DHT22;3199;49.102;8.856;2023-04-07T08:52:22;20.70;64.50
6333;DHT22;3199;49.102;8.856;2023-04-07T08:54:48;20.80;63.30
6333;DHT22;3199;49.102;8.856;2023-04-07T08:57:15;20.60;61.50
6333;DHT22;3199;49.102;8.856;2023-04-07T08:59:41;20.60;63.00
6333;DHT22;3199;49.102;8.856;2023-04-07T09:02:09;20.80;63.80
6333;DHT22;3199;49.102;8.856;2023-04-07T09:04:35;20.50;62.40
6333;DHT22;3199;49.102;8.856;2023-04-07T09:07:01;20.70;63.50
6333;DHT22;3199;49.102;8.856;2023-04-07T09:09:28;20.80;62.40
6333;DHT22;3199;49.102;8.856;2023-04-07T09:11:53;20.80;63.00
6333;DHT22;3199;49.102;8.856;2023-04-07T09:14:20;20.80;63.70
6333;DHT22;3199;49.102;8.856;2023-04-07T09:16:46;20.90;62.80
6333;DHT22;3199;49.102;8.856;2023-04-07T09:19:11;20.60;61.30
6333;DHT22;3199;49.102;8.856;2023-04-07T09:21:50;20.10;61.50
6333;DHT22;3199;49.102;8.856;2023-04-07T09:26:46;18.50;65.70
6333;DHT22;3199;49.102;8.856;2023-04-07T09:29:18;18.60;67.80
6333;DHT22;3199;49.102;8.856;2023-04-07T09:34:37;18.80;66.60
6333;DHT22;3199;49.102;8.856;2023-04-07T09:37:04;18.70;66.70
6333;DHT22;3199;49.102;8.856;2023-04-07T09:39:30;18.50;66.60
6333;DHT22;3199;49.102;8.856;2023-04-07T09:41:57;18.10;66.40
6333;DHT22;3199;49.102;8.856;2023-04-07T09:44:24;17.90;67.00
6333;DHT22;3199;49.102;8.856;2023-04-07T09:46:56;17.80;67.40
6333;DHT22;3199;49.102;8.856;2023-04-07T09:49:25;17.50;68.60
6333;DHT22;3199;49.102;8.856;2023-04-07T09:51:53;17.20;69.50
6333;DHT22;3199;49.102;8.856;2023-04-07T09:54:39;16.90;70.30
6333;DHT22;3199;49.102;8.856;2023-04-07T09:57:10;16.70;71.70
6333;DHT22;3199;49.102;8.856;2023-04-07T09:59:37;16.50;72.20
6333;DHT22;3199;49.102;8.856;2023-04-07T10:02:04;16.50;73.10
6333;DHT22;3199;49.102;8.856;2023-04-07T10:04:30;16.60;73.30
6333;DHT22;3199;49.102;8.856;2023-04-07T10:06:57;16.70;73.20
6333;DHT22;3199;49.102;8.856;2023-04-07T10:09:25;17.00;74.50
6333;DHT22;3199;49.102;8.856;2023-04-07T10:11:52;17.50;73.70
6333;DHT22;3199;49.102;8.856;2023-04-07T10:14:19;17.90;71.10
6333;DHT22;3199;49.102;8.856;2023-04-07T10:16:46;18.10;70.50
6333;DHT22;3199;49.102;8.856;2023-04-07T10:19:12;18.30;69.40
6333;DHT22;3199;49.102;8.856;2023-04-07T10:21:40;18.20;68.30
6333;DHT22;3199;49.102;8.856;2023-04-07T10:26:34;18.00;69.10
6333;DHT22;3199;49.102;8.856;2023-04-07T10:29:09;17.90;68.40
6333;DHT22;3199;49.102;8.856;2023-04-07T10:31:37;17.60;69.20
6333;DHT22;3199;49.102;8.856;2023-04-07T10:34:03;17.50;67.20
6333;DHT22;3199;49.102;8.856;2023-04-07T10:36:30;17.40;67.30
6333;DHT22;3199;49.102;8.856;2023-04-07T10:44:03;17.40;68.90
6333;DHT22;3199;49.102;8.856;2023-04-07T10:49:11;17.30;70.10
6333;DHT22;3199;49.102;8.856;2023-04-07T10:51:41;17.30;70.40
6333;DHT22;3199;49.102;8.856;2023-04-07T10:54:20;17.30;70.20
6333;DHT22;3199;49.102;8.856;2023-04-07T10:59:27;17.30;71.30
6333;DHT22;3199;49.102;8.856;2023-04-07T11:04:45;17.30;69.70
6333;DHT22;3199;49.102;8.856;2023-04-07T11:07:13;17.30;70.20
6333;DHT22;3199;49.102;8.856;2023-04-07T11:09:42;17.30;70.80
6333;DHT22;3199;49.102;8.856;2023-04-07T11:12:07;17.40;70.50
6333;DHT22;3199;49.102;8.856;2023-04-07T11:14:33;17.50;69.60
6333;DHT22;3199;49.102;8.856;2023-04-07T11:17:02;17.60;68.80
6333;DHT22;3199;49.102;8.856;2023-04-07T11:19:28;17.50;68.50
6333;DHT22;3199;49.102;8.856;2023-04-07T11:22:13;17.50;68.70
6333;DHT22;3199;49.102;8.856;2023-04-07T11:24:39;17.50;69.80
6333;DHT22;3199;49.102;8.856;2023-04-07T11:27:04;17.60;70.30
6333;DHT22;3199;49.102;8.856;2023-04-07T11:29:32;17.70;70.50
6333;DHT22;3199;49.102;8.856;2023-04-07T11:32:01;18.10;68.10
6333;DHT22;3199;49.102;8.856;2023-04-07T11:34:34;18.10;68.60
6333;DHT22;3199;49.102;8.856;2023-04-07T11:37:19;18.00;68.80
6333;DHT22;3199;49.102;8.856;2023-04-07T11:39:52;18.10;67.70
6333;DHT22;3199;49.102;8.856;2023-04-07T11:42:34;18.10;68.30
6333;DHT22;3199;49.102;8.856;2023-04-07T11:45:00;18.10;68.60
6333;DHT22;3199;49.102;8.856;2023-04-07T11:47:35;18.10;67.60
6333;DHT22;3199;49.102;8.856;2023-04-07T11:50:01;18.00;67.60
6333;DHT22;3199;49.102;8.856;2023-04-07T11:52:27;17.50;67.90
6333;DHT22;3199;49.102;8.856;2023-04-07T11:54:52;17.40;69.70
6333;DHT22;3199;49.102;8.856;2023-04-07T11:57:28;17.10;70.30
6333;DHT22;3199;49.102;8.856;2023-04-07T12:00:10;16.90;70.50
6333;DHT22;3199;49.102;8.856;2023-04-07T12:02:37;17.00;70.40
6333;DHT22;3199;49.102;8.856;2023-04-07T12:05:03;16.90;72.40
6333;DHT22;3199;49.102;8.856;2023-04-07T12:07:28;16.50;73.90
6333;DHT22;3199;49.102;8.856;2023-04-07T12:09:54;16.30;74.40
6333;DHT22;3199;49.102;8.856;2023-04-07T12:12:28;16.40;76.00
6333;DHT22;3199;49.102;8.856;2023-04-07T12:14:54;16.70;75.10
6333;DHT22;3199;49.102;8.856;2023-04-07T12:17:25;17.00;74.50
6333;DHT22;3199;49.102;8.856;2023-04-07T12:19:52;17.40;75.00
6333;DHT22;3199;49.102;8.856;2023-04-07T12:22:18;18.10;76.40
6333;DHT22;3199;49.102;8.856;2023-04-07T12:24:44;18.50;70.90
6333;DHT22;3199;49.102;8.856;2023-04-07T12:27:10;18.50;70.00
6333;DHT22;3199;49.102;8.856;2023-04-07T12:29:36;18.60;67.10
6333;DHT22;3199;49.102;8.856;2023-04-07T12:32:03;18.40;68.90
6333;DHT22;3199;49.102;8.856;2023-04-07T12:34:28;18.10;69.60
6333;DHT22;3199;49.102;8.856;2023-04-07T12:36:54;17.80;70.50
6333;DHT22;3199;49.102;8.856;2023-04-07T12:39:20;17.70;71.30
6333;DHT22;3199;49.102;8.856;2023-04-07T12:41:46;17.70;72.20
6333;DHT22;3199;49.102;8.856;2023-04-07T12:44:13;18.00;72.60
6333;DHT22;3199;49.102;8.856;2023-04-07T12:46:39;18.10;71.60
6333;DHT22;3199;49.102;8.856;2023-04-07T12:49:05;18.20;70.90
6333;DHT22;3199;49.102;8.856;2023-04-07T12:51:31;18.20;69.10
6333;DHT22;3199;49.102;8.856;2023-04-07T12:53:58;18.30;68.00
6333;DHT22;3199;49.102;8.856;2023-04-07T12:56:25;18.20;67.50
6333;DHT22;3199;49.102;8.856;2023-04-07T12:58:52;18.10;67.90
6333;DHT22;3199;49.102;8.856;2023-04-07T13:01:18;17.90;69.00
6333;DHT22;3199;49.102;8.856;2023-04-07T13:03:43;17.70;70.20
6333;DHT22;3199;49.102;8.856;2023-04-07T13:06:09;17.50;71.50
6333;DHT22;3199;49.102;8.856;2023-04-07T13:08:35;17.10;73.70
6333;DHT22;3199;49.102;8.856;2023-04-07T13:11:00;16.80;75.00
6333;DHT22;3199;49.102;8.856;2023-04-07T13:13:26;16.50;76.30
6333;DHT22;3199;49.102;8.856;2023-04-07T13:15:52;16.20;78.00
6333;DHT22;3199;49.102;8.856;2023-04-07T13:18:17;15.90;76.80
6333;DHT22;3199;49.102;8.856;2023-04-07T13:20:43;15.70;76.20
6333;DHT22;3199;49.102;8.856;2023-04-07T13:23:09;15.40;76.60
6333;DHT22;3199;49.102;8.856;2023-04-07T13:25:34;15.30;76.50
6333;DHT22;3199;49.102;8.856;2023-04-07T13:28:00;14.90;76.30
6333;DHT22;3199;49.102;8.856;2023-04-07T13:30:26;14.70;78.00
6333;DHT22;3199;49.102;8.856;2023-04-07T13:32:51;14.50;78.20
6333;DHT22;3199;49.102;8.856;2023-04-07T13:35:17;14.40;78.40
6333;DHT22;3199;49.102;8.856;2023-04-07T13:37:43;14.50;78.50
6333;DHT22;3199;49.102;8.856;2023-04-07T13:40:10;14.60;78.20
6333;DHT22;3199;49.102;8.856;2023-04-07T13:42:37;14.60;79.10
6333;DHT22;3199;49.102;8.856;2023-04-07T13:45:03;14.70;81.10
6333;DHT22;3199;49.102;8.856;2023-04-07T13:47:29;14.70;82.40
6333;DHT22;3199;49.102;8.856;2023-04-07T13:50:01;14.70;82.70
6333;DHT22;3199;49.102;8.856;2023-04-07T13:52:27;14.70;83.20
6333;DHT22;3199;49.102;8.856;2023-04-07T13:54:53;14.70;82.90
6333;DHT22;3199;49.102;8.856;2023-04-07T13:57:19;14.70;83.30
6333;DHT22;3199;49.102;8.856;2023-04-07T13:59:49;14.70;84.10
6333;DHT22;3199;49.102;8.856;2023-04-07T14:02:17;14.80;84.50
6333;DHT22;3199;49.102;8.856;2023-04-07T14:04:42;14.80;84.80
6333;DHT22;3199;49.102;8.856;2023-04-07T14:07:08;14.90;84.00
6333;DHT22;3199;49.102;8.856;2023-04-07T14:09:34;15.00;83.60
6333;DHT22;3199;49.102;8.856;2023-04-07T14:11:59;15.00;83.40
6333;DHT22;3199;49.102;8.856;2023-04-07T14:14:25;15.00;83.20
6333;DHT22;3199;49.102;8.856;2023-04-07T14:16:50;15.00;83.20
6333;DHT22;3199;49.102;8.856;2023-04-07T14:19:19;15.10;83.00
6333;DHT22;3199;49.102;8.856;2023-04-07T14:21:45;15.10;82.80
6333;DHT22;3199;49.102;8.856;2023-04-07T14:24:11;15.20;82.80
6333;DHT22;3199;49.102;8.856;2023-04-07T14:26:36;15.20;81.70
6333;DHT22;3199;49.102;8.856;2023-04-07T14:29:02;15.30;81.90
6333;DHT22;3199;49.102;8.856;2023-04-07T14:31:28;15.40;81.70
6333;DHT22;3199;49.102;8.856;2023-04-07T14:33:53;15.50;81.70
6333;DHT22;3199;49.102;8.856;2023-04-07T14:36:19;15.50;80.30
6333;DHT22;3199;49.102;8.856;2023-04-07T14:38:45;15.40;79.40
6333;DHT22;3199;49.102;8.856;2023-04-07T14:41:11;15.20;79.50
6333;DHT22;3199;49.102;8.856;2023-04-07T14:43:37;15.20;81.00
6333;DHT22;3199;49.102;8.856;2023-04-07T14:46:04;15.30;80.90
6333;DHT22;3199;49.102;8.856;2023-04-07T14:48:29;15.50;79.00
6333;DHT22;3199;49.102;8.856;2023-04-07T14:50:55;15.60;77.80
6333;DHT22;3199;49.102;8.856;2023-04-07T14:53:21;15.70;75.70
6333;DHT22;3199;49.102;8.856;2023-04-07T14:55:47;15.80;76.30
6333;DHT22;3199;49.102;8.856;2023-04-07T14:58:13;15.80;76.50
6333;DHT22;3199;49.102;8.856;2023-04-07T15:00:38;15.80;77.90
6333;DHT22;3199;49.102;8.856;2023-04-07T15:03:04;15.80;78.60
6333;DHT22;3199;49.102;8.856;2023-04-07T15:05:29;15.60;80.00
6333;DHT22;3199;49.102;8.856;2023-04-07T15:07:55;15.50;80.70
6333;DHT22;3199;49.102;8.856;2023-04-07T15:10:21;15.20;81.50
6333;DHT22;3199;49.102;8.856;2023-04-07T15:12:46;15.10;82.40
6333;DHT22;3199;49.102;8.856;2023-04-07T15:15:13;15.00;83.50
6333;DHT22;3199;49.102;8.856;2023-04-07T15:17:39;14.90;84.80
6333;DHT22;3199;49.102;8.856;2023-04-07T15:20:05;14.90;85.90
6333;DHT22;3199;49.102;8.856;2023-04-07T15:22:31;14.80;86.60
6333;DHT22;3199;49.102;8.856;2023-04-07T15:24:56;14.70;87.40
6333;DHT22;3199;49.102;8.856;2023-04-07T15:27:22;14.60;88.10
6333;DHT22;3199;49.102;8.856;2023-04-07T15:29:47;14.50;89.10
6333;DHT22;3199;49.102;8.856;2023-04-07T15:32:13;14.40;89.90
6333;DHT22;3199;49.102;8.856;2023-04-07T15:34:38;14.40;89.70
6333;DHT22;3199;49.102;8.856;2023-04-07T15:37:04;14.40;89.30
6333;DHT22;3199;49.102;8.856;2023-04-07T15:39:29;14.40;90.10
6333;DHT22;3199;49.102;8.856;2023-04-07T15:41:55;14.50;90.70
6333;DHT22;3199;49.102;8.856;2023-04-07T15:44:22;14.50;90.30
6333;DHT22;3199;49.102;8.856;2023-04-07T15:46:47;14.60;90.50
6333;DHT22;3199;49.102;8.856;2023-04-07T15:49:13;14.50;90.60
6333;DHT22;3199;49.102;8.856;2023-04-07T15:51:44;14.50;90.60
6333;DHT22;3199;49.102;8.856;2023-04-07T15:54:10;14.50;91.10
6333;DHT22;3199;49.102;8.856;2023-04-07T15:56:35;14.30;90.90
6333;DHT22;3199;49.102;8.856;2023-04-07T15:59:01;14.20;91.00
6333;DHT22;3199;49.102;8.856;2023-04-07T16:01:27;14.10;91.10
6333;DHT22;3199;49.102;8.856;2023-04-07T16:03:52;14.00;91.40
6333;DHT22;3199;49.102;8.856;2023-04-07T16:06:18;13.90;91.70
6333;DHT22;3199;49.102;8.856;2023-04-07T16:08:44;13.80;91.90
6333;DHT22;3199;49.102;8.856;2023-04-07T16:11:09;13.70;92.10
6333;DHT22;3199;49.102;8.856;2023-04-07T16:13:35;13.60;92.40
6333;DHT22;3199;49.102;8.856;2023-04-07T16:16:00;13.60;92.80
6333;DHT22;3199;49.102;8.856;2023-04-07T16:18:26;13.50;93.00
6333;DHT22;3199;49.102;8.856;2023-04-07T16:20:51;13.50;93.50
6333;DHT22;3199;49.102;8.856;2023-04-07T16:23:17;13.40;93.90
6333;DHT22;3199;49.102;8.856;2023-04-07T16:25:42;13.40;94.30
6333;DHT22;3199;49.102;8.856;2023-04-07T16:28:08;13.30;94.50
6333;DHT22;3199;49.102;8.856;2023-04-07T16:30:33;13.20;94.50
6333;DHT22;3199;49.102;8.856;2023-04-07T16:33:00;13.20;94.70